sensor_id;sensor_type;location;lat;lon;timestamp;P1;durP1;ratioP1;P2;durP2;ratioP2
15246;SDS011;7726;48.820;9.248;2023-08-24T00:00:58;6.63;;;5.40;;
15246;SDS011;7726;48.820;9.248;2023-08-24T00:03:26;9.13;;;5.50;;
15246;SDS011;7726;48.820;9.248;2023-08-24T00:05:54;5.72;;;5.13;;
15246;SDS011;7726;48.820;9.248;2023-08-24T00:08:21;6.63;;;5.05;;
15246;SDS011;7726;48.820;9.248;2023-08-24T00:10:49;7.03;;;5.30;;
15246;SDS011;7726;48.820;9.248;2023-08-24T00:13:16;7.10;;;5.38;;
15246;SDS011;7726;48.820;9.248;2023-08-24T00:15:44;6.68;;;5.65;;
15246;SDS011;7726;48.820;9.248;2023-08-24T00:18:11;6.30;;;5.65;;
15246;SDS011;7726;48.820;9.248;2023-08-24T00:20:40;6.40;;;5.65;;
15246;SDS011;7726;48.820;9.248;2023-08-24T00:23:07;6.30;;;5.70;;
15246;SDS011;7726;48.820;9.248;2023-08-24T00:25:34;8.68;;;6.03;;
15246;SDS011;7726;48.820;9.248;2023-08-24T00:28:02;8.07;;;5.75;;
15246;SDS011;7726;48.820;9.248;2023-08-24T00:30:29;7.75;;;5.57;;
15246;SDS011;7726;48.820;9.248;2023-08-24T00:32:56;6.47;;;5.60;;
15246;SDS011;7726;48.820;9.248;2023-08-24T00:35:23;9.43;;;5.50;;
15246;SDS011;7726;48.820;9.248;2023-08-24T00:37:51;5.80;;;4.93;;
15246;SDS011;7726;48.820;9.248;2023-08-24T00:40:19;5.53;;;5.10;;
15246;SDS011;7726;48.820;9.248;2023-08-24T00:42:46;5.75;;;5.25;;
15246;SDS011;7726;48.820;9.248;2023-08-24T00:45:13;6.00;;;5.43;;
15246;SDS011;7726;48.820;9.248;2023-08-24T00:47:42;6.40;;;5.80;;
15246;SDS011;7726;48.820;9.248;2023-08-24T00:50:10;5.95;;;5.35;;
15246;SDS011;7726;48.820;9.248;2023-08-24T00:52:38;9.48;;;5.65;;
15246;SDS011;7726;48.820;9.248;2023-08-24T00:55:08;5.78;;;5.28;;
15246;SDS011;7726;48.820;9.248;2023-08-24T00:57:35;7.55;;;5.50;;
15246;SDS011;7726;48.820;9.248;2023-08-24T01:00:04;5.90;;;5.22;;
15246;SDS011;7726;48.820;9.248;2023-08-24T01:02:33;7.18;;;5.40;;
15246;SDS011;7726;48.820;9.248;2023-08-24T01:05:00;7.35;;;5.18;;
15246;SDS011;7726;48.820;9.248;2023-08-24T01:07:29;6.25;;;5.00;;
15246;SDS011;7726;48.820;9.248;2023-08-24T01:09:56;5.95;;;5.35;;
15246;SDS011;7726;48.820;9.248;2023-08-24T01:12:26;7.40;;;5.80;;
15246;SDS011;7726;48.820;9.248;2023-08-24T01:14:57;8.32;;;5.60;;
15246;SDS011;7726;48.820;9.248;2023-08-24T01:17:25;6.13;;;5.50;;
15246;SDS011;7726;48.820;9.248;2023-08-24T01:19:54;8.98;;;5.78;;
15246;SDS011;7726;48.820;9.248;2023-08-24T01:22:31;5.93;;;5.35;;
15246;SDS011;7726;48.820;9.248;2023-08-24T01:25:00;6.75;;;5.65;;
15246;SDS011;7726;48.820;9.248;2023-08-24T01:27:32;8.80;;;5.88;;
15246;SDS011;7726;48.820;9.248;2023-08-24T01:30:01;5.75;;;5.25;;
15246;SDS011;7726;48.820;9.248;2023-08-24T01:32:29;7.10;;;5.68;;
15246;SDS011;7726;48.820;9.248;2023-08-24T01:34:57;6.65;;;5.95;;
15246;SDS011;7726;48.820;9.248;2023-08-24T01:37:24;7.25;;;5.93;;
15246;SDS011;7726;48.820;9.248;2023-08-24T01:39:53;7.10;;;5.60;;
15246;SDS011;7726;48.820;9.248;2023-08-24T01:42:21;6.95;;;6.05;;
15246;SDS011;7726;48.820;9.248;2023-08-24T01:44:54;7.15;;;5.88;;
15246;SDS011;7726;48.820;9.248;2023-08-24T01:47:23;6.72;;;6.05;;
15246;SDS011;7726;48.820;9.248;2023-08-24T01:49:51;8.02;;;5.85;;
15246;SDS011;7726;48.820;9.248;2023-08-24T01:52:19;5.35;;;4.95;;
15246;SDS011;7726;48.820;9.248;2023-08-24T01:54:47;8.05;;;5.88;;
15246;SDS011;7726;48.820;9.248;2023-08-24T01:57:14;5.80;;;5.28;;
15246;SDS011;7726;48.820;9.248;2023-08-24T01:59:41;6.25;;;5.55;;
15246;SDS011;7726;48.820;9.248;2023-08-24T02:02:10;11.05;;;6.55;;
15246;SDS011;7726;48.820;9.248;2023-08-24T02:04:37;7.07;;;6.43;;
15246;SDS011;7726;48.820;9.248;2023-08-24T02:07:04;8.18;;;6.32;;
15246;SDS011;7726;48.820;9.248;2023-08-24T02:09:31;7.00;;;6.28;;
15246;SDS011;7726;48.820;9.248;2023-08-24T02:11:58;8.10;;;5.78;;
15246;SDS011;7726;48.820;9.248;2023-08-24T02:14:25;9.05;;;6.80;;
15246;SDS011;7726;48.820;9.248;2023-08-24T02:16:52;6.63;;;5.93;;
15246;SDS011;7726;48.820;9.248;2023-08-24T02:19:21;6.72;;;6.03;;
15246;SDS011;7726;48.820;9.248;2023-08-24T02:21:48;7.28;;;6.63;;
15246;SDS011;7726;48.820;9.248;2023-08-24T02:24:15;8.40;;;6.47;;
15246;SDS011;7726;48.820;9.248;2023-08-24T02:26:42;8.80;;;6.47;;
15246;SDS011;7726;48.820;9.248;2023-08-24T02:29:10;7.93;;;6.97;;
15246;SDS011;7726;48.820;9.248;2023-08-24T02:31:37;8.02;;;6.22;;
15246;SDS011;7726;48.820;9.248;2023-08-24T02:34:04;7.55;;;6.95;;
15246;SDS011;7726;48.820;9.248;2023-08-24T02:36:32;7.53;;;6.25;;
15246;SDS011;7726;48.820;9.248;2023-08-24T02:39:00;6.90;;;6.30;;
15246;SDS011;7726;48.820;9.248;2023-08-24T02:41:27;7.15;;;5.85;;
15246;SDS011;7726;48.820;9.248;2023-08-24T02:43:54;6.65;;;6.05;;
15246;SDS011;7726;48.820;9.248;2023-08-24T02:46:21;7.15;;;6.35;;
15246;SDS011;7726;48.820;9.248;2023-08-24T02:48:48;8.52;;;7.15;;
15246;SDS011;7726;48.820;9.248;2023-08-24T02:51:15;7.90;;;6.40;;
15246;SDS011;7726;48.820;9.248;2023-08-24T02:53:44;7.50;;;6.80;;
15246;SDS011;7726;48.820;9.248;2023-08-24T02:56:11;8.93;;;6.45;;
15246;SDS011;7726;48.820;9.248;2023-08-24T02:58:38;7.65;;;6.70;;
15246;SDS011;7726;48.820;9.248;2023-08-24T03:01:05;7.85;;;6.90;;
15246;SDS011;7726;48.820;9.248;2023-08-24T03:03:33;8.25;;;7.13;;
15246;SDS011;7726;48.820;9.248;2023-08-24T03:06:01;9.32;;;7.07;;
15246;SDS011;7726;48.820;9.248;2023-08-24T03:08:29;10.13;;;7.07;;
15246;SDS011;7726;48.820;9.248;2023-08-24T03:10:58;8.00;;;6.90;;
15246;SDS011;7726;48.820;9.248;2023-08-24T03:13:25;7.65;;;6.30;;
15246;SDS011;7726;48.820;9.248;2023-08-24T03:15:53;7.78;;;6.65;;
15246;SDS011;7726;48.820;9.248;2023-08-24T03:18:20;7.45;;;6.82;;
15246;SDS011;7726;48.820;9.248;2023-08-24T03:20:48;7.47;;;6.75;;
15246;SDS011;7726;48.820;9.248;2023-08-24T03:23:16;6.80;;;6.20;;
15246;SDS011;7726;48.820;9.248;2023-08-24T03:25:43;7.50;;;6.80;;
15246;SDS011;7726;48.820;9.248;2023-08-24T03:28:12;8.05;;;6.30;;
15246;SDS011;7726;48.820;9.248;2023-08-24T03:30:39;7.43;;;6.72;;
15246;SDS011;7726;48.820;9.248;2023-08-24T03:33:06;7.25;;;6.47;;
15246;SDS011;7726;48.820;9.248;2023-08-24T03:35:34;8.90;;;7.25;;
15246;SDS011;7726;48.820;9.248;2023-08-24T03:38:01;7.15;;;6.53;;
15246;SDS011;7726;48.820;9.248;2023-08-24T03:40:29;6.97;;;6.35;;
15246;SDS011;7726;48.820;9.248;2023-08-24T03:42:56;8.45;;;6.47;;
15246;SDS011;7726;48.820;9.248;2023-08-24T03:45:24;7.70;;;6.80;;
15246;SDS011;7726;48.820;9.248;2023-08-24T03:47:52;8.20;;;7.05;;
15246;SDS011;7726;48.820;9.248;2023-08-24T03:50:19;7.63;;;6.93;;
15246;SDS011;7726;48.820;9.248;2023-08-24T03:52:47;8.13;;;6.55;;
15246;SDS011;7726;48.820;9.248;2023-08-24T03:55:14;6.85;;;6.20;;
15246;SDS011;7726;48.820;9.248;2023-08-24T03:57:42;7.20;;;6.50;;
15246;SDS011;7726;48.820;9.248;2023-08-24T04:00:09;7.60;;;6.90;;
15246;SDS011;7726;48.820;9.248;2023-08-24T04:02:38;7.25;;;6.40;;
15246;SDS011;7726;48.820;9.248;2023-08-24T04:05:06;6.88;;;6.18;;
15246;SDS011;7726;48.820;9.248;2023-08-24T04:07:33;7.57;;;6.88;;
15246;SDS011;7726;48.820;9.248;2023-08-24T04:10:01;6.63;;;6.03;;
15246;SDS011;7726;48.820;9.248;2023-08-24T04:12:29;6.97;;;6.28;;
15246;SDS011;7726;48.820;9.248;2023-08-24T04:14:57;8.20;;;6.78;;
15246;SDS011;7726;48.820;9.248;2023-08-24T04:17:24;7.28;;;6.43;;
15246;SDS011;7726;48.820;9.248;2023-08-24T04:19:52;6.55;;;6.05;;
15246;SDS011;7726;48.820;9.248;2023-08-24T04:22:19;6.90;;;6.30;;
15246;SDS011;7726;48.820;9.248;2023-08-24T04:24:47;6.70;;;5.85;;
15246;SDS011;7726;48.820;9.248;2023-08-24T04:27:14;8.57;;;6.03;;
15246;SDS011;7726;48.820;9.248;2023-08-24T04:29:41;9.63;;;6.40;;
15246;SDS011;7726;48.820;9.248;2023-08-24T04:32:08;7.70;;;6.07;;
15246;SDS011;7726;48.820;9.248;2023-08-24T04:34:35;6.43;;;5.82;;
15246;SDS011;7726;48.820;9.248;2023-08-24T04:37:05;6.45;;;5.85;;
15246;SDS011;7726;48.820;9.248;2023-08-24T04:39:32;7.57;;;6.10;;
15246;SDS011;7726;48.820;9.248;2023-08-24T04:42:00;7.00;;;5.70;;
15246;SDS011;7726;48.820;9.248;2023-08-24T04:44:27;6.75;;;5.78;;
15246;SDS011;7726;48.820;9.248;2023-08-24T04:46:54;8.07;;;6.07;;
15246;SDS011;7726;48.820;9.248;2023-08-24T04:49:21;6.72;;;5.63;;
15246;SDS011;7726;48.820;9.248;2023-08-24T04:51:49;6.85;;;6.25;;
15246;SDS011;7726;48.820;9.248;2023-08-24T04:54:18;12.25;;;6.47;;
15246;SDS011;7726;48.820;9.248;2023-08-24T04:56:46;9.05;;;6.13;;
15246;SDS011;7726;48.820;9.248;2023-08-24T04:59:13;8.13;;;6.13;;
15246;SDS011;7726;48.820;9.248;2023-08-24T05:01:40;8.02;;;6.28;;
15246;SDS011;7726;48.820;9.248;2023-08-24T05:04:08;8.85;;;6.10;;
15246;SDS011;7726;48.820;9.248;2023-08-24T05:06:35;6.55;;;6.00;;
15246;SDS011;7726;48.820;9.248;2023-08-24T05:09:02;7.05;;;6.43;;
15246;SDS011;7726;48.820;9.248;2023-08-24T05:11:30;7.05;;;6.40;;
15246;SDS011;7726;48.820;9.248;2023-08-24T05:13:57;6.80;;;6.20;;
15246;SDS011;7726;48.820;9.248;2023-08-24T05:16:25;11.07;;;6.22;;
15246;SDS011;7726;48.820;9.248;2023-08-24T05:18:53;6.82;;;6.22;;
15246;SDS011;7726;48.820;9.248;2023-08-24T05:21:20;6.28;;;5.80;;
15246;SDS011;7726;48.820;9.248;2023-08-24T05:23:47;6.75;;;6.15;;
15246;SDS011;7726;48.820;9.248;2023-08-24T05:26:14;9.93;;;6.35;;
15246;SDS011;7726;48.820;9.248;2023-08-24T05:28:48;10.55;;;6.25;;
15246;SDS011;7726;48.820;9.248;2023-08-24T05:31:15;6.65;;;5.90;;
15246;SDS011;7726;48.820;9.248;2023-08-24T05:33:43;8.73;;;5.93;;
15246;SDS011;7726;48.820;9.248;2023-08-24T05:36:10;6.53;;;5.80;;
15246;SDS011;7726;48.820;9.248;2023-08-24T05:38:37;7.03;;;6.15;;
15246;SDS011;7726;48.820;9.248;2023-08-24T05:41:09;6.05;;;5.47;;
15246;SDS011;7726;48.820;9.248;2023-08-24T05:43:37;6.80;;;6.20;;
15246;SDS011;7726;48.820;9.248;2023-08-24T05:46:06;8.10;;;5.78;;
15246;SDS011;7726;48.820;9.248;2023-08-24T05:48:33;8.70;;;6.25;;
15246;SDS011;7726;48.820;9.248;2023-08-24T05:51:00;6.45;;;5.85;;
15246;SDS011;7726;48.820;9.248;2023-08-24T05:53:27;7.47;;;5.70;;
15246;SDS011;7726;48.820;9.248;2023-08-24T05:55:57;6.63;;;5.80;;
15246;SDS011;7726;48.820;9.248;2023-08-24T05:58:24;7.72;;;5.22;;
15246;SDS011;7726;48.820;9.248;2023-08-24T06:00:57;6.30;;;5.75;;
15246;SDS011;7726;48.820;9.248;2023-08-24T06:03:26;6.18;;;5.50;;
15246;SDS011;7726;48.820;9.248;2023-08-24T06:05:53;6.47;;;5.05;;
15246;SDS011;7726;48.820;9.248;2023-08-24T06:08:21;6.97;;;5.30;;
15246;SDS011;7726;48.820;9.248;2023-08-24T06:10:48;10.82;;;5.68;;
15246;SDS011;7726;48.820;9.248;2023-08-24T06:13:15;5.82;;;5.32;;
15246;SDS011;7726;48.820;9.248;2023-08-24T06:15:42;6.55;;;5.68;;
15246;SDS011;7726;48.820;9.248;2023-08-24T06:18:10;5.75;;;5.25;;
15246;SDS011;7726;48.820;9.248;2023-08-24T06:20:38;5.30;;;4.90;;
15246;SDS011;7726;48.820;9.248;2023-08-24T06:23:05;5.75;;;5.25;;
15246;SDS011;7726;48.820;9.248;2023-08-24T06:25:33;6.80;;;5.97;;
15246;SDS011;7726;48.820;9.248;2023-08-24T06:28:00;6.88;;;5.60;;
15246;SDS011;7726;48.820;9.248;2023-08-24T06:30:29;7.97;;;5.68;;
15246;SDS011;7726;48.820;9.248;2023-08-24T06:32:58;5.93;;;5.40;;
15246;SDS011;7726;48.820;9.248;2023-08-24T06:35:25;7.68;;;5.72;;
15246;SDS011;7726;48.820;9.248;2023-08-24T06:37:53;6.07;;;5.47;;
15246;SDS011;7726;48.820;9.248;2023-08-24T06:40:20;9.10;;;5.45;;
15246;SDS011;7726;48.820;9.248;2023-08-24T06:42:48;6.20;;;5.00;;
15246;SDS011;7726;48.820;9.248;2023-08-24T06:45:15;7.40;;;5.80;;
15246;SDS011;7726;48.820;9.248;2023-08-24T06:47:43;5.68;;;5.15;;
15246;SDS011;7726;48.820;9.248;2023-08-24T06:50:10;9.27;;;5.93;;
15246;SDS011;7726;48.820;9.248;2023-08-24T06:52:38;9.10;;;5.97;;
15246;SDS011;7726;48.820;9.248;2023-08-24T06:55:07;6.90;;;5.50;;
15246;SDS011;7726;48.820;9.248;2023-08-24T06:57:35;7.68;;;5.78;;
15246;SDS011;7726;48.820;9.248;2023-08-24T07:00:02;13.98;;;5.65;;
15246;SDS011;7726;48.820;9.248;2023-08-24T07:02:32;7.20;;;6.15;;
15246;SDS011;7726;48.820;9.248;2023-08-24T07:04:59;7.60;;;6.25;;
15246;SDS011;7726;48.820;9.248;2023-08-24T07:07:29;13.55;;;5.95;;
15246;SDS011;7726;48.820;9.248;2023-08-24T07:09:56;9.43;;;5.65;;
15246;SDS011;7726;48.820;9.248;2023-08-24T07:12:25;6.75;;;5.28;;
15246;SDS011;7726;48.820;9.248;2023-08-24T07:14:52;8.02;;;5.80;;
15246;SDS011;7726;48.820;9.248;2023-08-24T07:17:19;8.10;;;5.53;;
15246;SDS011;7726;48.820;9.248;2023-08-24T07:19:46;6.07;;;5.28;;
15246;SDS011;7726;48.820;9.248;2023-08-24T07:22:14;8.13;;;5.93;;
15246;SDS011;7726;48.820;9.248;2023-08-24T07:24:41;7.53;;;5.60;;
15246;SDS011;7726;48.820;9.248;2023-08-24T07:27:08;12.00;;;5.40;;
15246;SDS011;7726;48.820;9.248;2023-08-24T07:29:37;8.02;;;5.30;;
15246;SDS011;7726;48.820;9.248;2023-08-24T07:32:04;6.38;;;5.25;;
15246;SDS011;7726;48.820;9.248;2023-08-24T07:34:31;10.52;;;4.78;;
15246;SDS011;7726;48.820;9.248;2023-08-24T07:36:59;8.15;;;5.20;;
15246;SDS011;7726;48.820;9.248;2023-08-24T07:39:26;7.80;;;5.03;;
15246;SDS011;7726;48.820;9.248;2023-08-24T07:41:53;8.13;;;5.45;;
15246;SDS011;7726;48.820;9.248;2023-08-24T07:44:20;5.00;;;4.53;;
15246;SDS011;7726;48.820;9.248;2023-08-24T07:46:49;6.93;;;4.40;;
15246;SDS011;7726;48.820;9.248;2023-08-24T07:49:16;5.20;;;4.53;;
15246;SDS011;7726;48.820;9.248;2023-08-24T07:51:43;5.90;;;4.30;;
15246;SDS011;7726;48.820;9.248;2023-08-24T07:54:12;6.63;;;4.72;;
15246;SDS011;7726;48.820;9.248;2023-08-24T07:56:39;5.22;;;4.30;;
15246;SDS011;7726;48.820;9.248;2023-08-24T07:59:06;6.72;;;4.38;;
15246;SDS011;7726;48.820;9.248;2023-08-24T08:01:34;4.57;;;4.13;;
15246;SDS011;7726;48.820;9.248;2023-08-24T08:04:02;4.88;;;4.38;;
15246;SDS011;7726;48.820;9.248;2023-08-24T08:06:29;6.30;;;4.20;;
15246;SDS011;7726;48.820;9.248;2023-08-24T08:08:56;7.53;;;4.85;;
15246;SDS011;7726;48.820;9.248;2023-08-24T08:11:24;5.18;;;4.70;;
15246;SDS011;7726;48.820;9.248;2023-08-24T08:13:51;7.00;;;4.53;;
15246;SDS011;7726;48.820;9.248;2023-08-24T08:16:18;6.30;;;4.60;;
15246;SDS011;7726;48.820;9.248;2023-08-24T08:18:45;8.93;;;4.25;;
15246;SDS011;7726;48.820;9.248;2023-08-24T08:21:16;5.60;;;4.28;;
15246;SDS011;7726;48.820;9.248;2023-08-24T08:23:44;6.68;;;4.50;;
15246;SDS011;7726;48.820;9.248;2023-08-24T08:26:11;4.93;;;4.40;;
15246;SDS011;7726;48.820;9.248;2023-08-24T08:28:39;5.85;;;4.55;;
15246;SDS011;7726;48.820;9.248;2023-08-24T08:31:06;7.20;;;4.15;;
15246;SDS011;7726;48.820;9.248;2023-08-24T08:33:34;5.43;;;4.80;;
15246;SDS011;7726;48.820;9.248;2023-08-24T08:36:01;5.60;;;4.15;;
15246;SDS011;7726;48.820;9.248;2023-08-24T08:38:29;6.20;;;4.13;;
15246;SDS011;7726;48.820;9.248;2023-08-24T08:41:00;8.30;;;5.13;;
15246;SDS011;7726;48.820;9.248;2023-08-24T08:43:28;6.00;;;4.20;;
15246;SDS011;7726;48.820;9.248;2023-08-24T08:45:56;6.63;;;4.50;;
15246;SDS011;7726;48.820;9.248;2023-08-24T08:48:24;6.05;;;4.40;;
15246;SDS011;7726;48.820;9.248;2023-08-24T08:50:52;8.98;;;4.40;;
15246;SDS011;7726;48.820;9.248;2023-08-24T08:53:21;4.80;;;4.40;;
15246;SDS011;7726;48.820;9.248;2023-08-24T08:55:49;8.25;;;4.60;;
15246;SDS011;7726;48.820;9.248;2023-08-24T08:58:18;4.53;;;4.00;;
15246;SDS011;7726;48.820;9.248;2023-08-24T09:00:45;8.40;;;4.47;;
15246;SDS011;7726;48.820;9.248;2023-08-24T09:03:13;5.85;;;4.57;;
15246;SDS011;7726;48.820;9.248;2023-08-24T09:05:41;7.32;;;4.63;;
15246;SDS011;7726;48.820;9.248;2023-08-24T09:08:08;8.40;;;4.07;;
15246;SDS011;7726;48.820;9.248;2023-08-24T09:10:36;4.82;;;4.40;;
15246;SDS011;7726;48.820;9.248;2023-08-24T09:13:04;5.97;;;4.50;;
15246;SDS011;7726;48.820;9.248;2023-08-24T09:15:34;5.97;;;4.22;;
15246;SDS011;7726;48.820;9.248;2023-08-24T09:18:02;4.93;;;4.40;;
15246;SDS011;7726;48.820;9.248;2023-08-24T09:20:29;8.05;;;4.50;;
15246;SDS011;7726;48.820;9.248;2023-08-24T09:22:56;5.57;;;4.00;;
15246;SDS011;7726;48.820;9.248;2023-08-24T09:25:23;5.07;;;4.32;;
15246;SDS011;7726;48.820;9.248;2023-08-24T09:27:57;8.20;;;4.47;;
15246;SDS011;7726;48.820;9.248;2023-08-24T09:30:29;8.05;;;4.38;;
15246;SDS011;7726;48.820;9.248;2023-08-24T09:33:00;5.28;;;4.65;;
15246;SDS011;7726;48.820;9.248;2023-08-24T09:35:27;7.18;;;4.20;;
15246;SDS011;7726;48.820;9.248;2023-08-24T09:37:55;5.32;;;3.75;;
15246;SDS011;7726;48.820;9.248;2023-08-24T09:40:24;6.05;;;4.00;;
15246;SDS011;7726;48.820;9.248;2023-08-24T09:42:54;9.10;;;4.53;;
15246;SDS011;7726;48.820;9.248;2023-08-24T09:45:21;4.78;;;4.38;;
15246;SDS011;7726;48.820;9.248;2023-08-24T09:47:50;7.80;;;4.53;;
15246;SDS011;7726;48.820;9.248;2023-08-24T09:50:18;4.88;;;3.90;;
15246;SDS011;7726;48.820;9.248;2023-08-24T09:52:46;5.38;;;4.55;;
15246;SDS011;7726;48.820;9.248;2023-08-24T09:55:15;4.47;;;4.07;;
15246;SDS011;7726;48.820;9.248;2023-08-24T09:57:43;5.82;;;4.45;;
15246;SDS011;7726;48.820;9.248;2023-08-24T10:00:13;4.40;;;4.00;;
15246;SDS011;7726;48.820;9.248;2023-08-24T10:02:41;5.22;;;4.40;;
15246;SDS011;7726;48.820;9.248;2023-08-24T10:05:12;6.05;;;4.43;;
15246;SDS011;7726;48.820;9.248;2023-08-24T10:07:46;8.82;;;4.90;;
15246;SDS011;7726;48.820;9.248;2023-08-24T10:10:13;6.72;;;4.82;;
15246;SDS011;7726;48.820;9.248;2023-08-24T10:12:41;5.20;;;4.70;;
15246;SDS011;7726;48.820;9.248;2023-08-24T10:15:11;6.30;;;4.60;;
15246;SDS011;7726;48.820;9.248;2023-08-24T10:17:38;5.13;;;4.63;;
15246;SDS011;7726;48.820;9.248;2023-08-24T10:20:06;4.47;;;4.10;;
15246;SDS011;7726;48.820;9.248;2023-08-24T10:22:36;7.00;;;4.70;;
15246;SDS011;7726;48.820;9.248;2023-08-24T10:25:05;6.47;;;4.38;;
15246;SDS011;7726;48.820;9.248;2023-08-24T10:27:35;6.30;;;4.63;;
15246;SDS011;7726;48.820;9.248;2023-08-24T10:30:02;4.95;;;4.45;;
15246;SDS011;7726;48.820;9.248;2023-08-24T10:32:30;7.95;;;4.60;;
15246;SDS011;7726;48.820;9.248;2023-08-24T10:34:57;5.75;;;4.30;;
15246;SDS011;7726;48.820;9.248;2023-08-24T10:37:25;6.38;;;4.28;;
15246;SDS011;7726;48.820;9.248;2023-08-24T10:39:53;6.60;;;4.93;;
15246;SDS011;7726;48.820;9.248;2023-08-24T10:42:21;4.93;;;4.43;;
15246;SDS011;7726;48.820;9.248;2023-08-24T10:44:48;6.13;;;4.28;;
15246;SDS011;7726;48.820;9.248;2023-08-24T10:47:18;5.00;;;4.18;;
15246;SDS011;7726;48.820;9.248;2023-08-24T10:49:57;6.63;;;4.40;;
15246;SDS011;7726;48.820;9.248;2023-08-24T10:52:25;8.52;;;5.18;;
15246;SDS011;7726;48.820;9.248;2023-08-24T10:54:54;5.32;;;4.28;;
15246;SDS011;7726;48.820;9.248;2023-08-24T10:57:22;5.05;;;4.60;;
15246;SDS011;7726;48.820;9.248;2023-08-24T10:59:59;4.90;;;4.50;;
15246;SDS011;7726;48.820;9.248;2023-08-24T11:02:26;6.97;;;4.68;;
15246;SDS011;7726;48.820;9.248;2023-08-24T11:05:03;9.73;;;4.20;;
15246;SDS011;7726;48.820;9.248;2023-08-24T11:07:30;5.60;;;4.97;;
15246;SDS011;7726;48.820;9.248;2023-08-24T11:09:59;5.65;;;4.97;;
15246;SDS011;7726;48.820;9.248;2023-08-24T11:12:26;4.95;;;4.40;;
15246;SDS011;7726;48.820;9.248;2023-08-24T11:14:54;5.55;;;4.82;;
15246;SDS011;7726;48.820;9.248;2023-08-24T11:17:24;8.20;;;4.53;;
15246;SDS011;7726;48.820;9.248;2023-08-24T11:19:51;5.13;;;4.47;;
15246;SDS011;7726;48.820;9.248;2023-08-24T11:22:19;5.50;;;4.95;;
15246;SDS011;7726;48.820;9.248;2023-08-24T11:24:47;6.53;;;4.93;;
15246;SDS011;7726;48.820;9.248;2023-08-24T11:27:16;5.80;;;5.00;;
15246;SDS011;7726;48.820;9.248;2023-08-24T11:29:43;6.18;;;4.65;;
15246;SDS011;7726;48.820;9.248;2023-08-24T11:32:10;6.53;;;5.65;;
15246;SDS011;7726;48.820;9.248;2023-08-24T11:34:37;6.22;;;4.88;;
15246;SDS011;7726;48.820;9.248;2023-08-24T11:37:05;9.93;;;5.35;;
15246;SDS011;7726;48.820;9.248;2023-08-24T11:39:32;7.78;;;5.38;;
15246;SDS011;7726;48.820;9.248;2023-08-24T11:42:00;11.68;;;5.07;;
15246;SDS011;7726;48.820;9.248;2023-08-24T11:44:29;7.13;;;4.78;;
15246;SDS011;7726;48.820;9.248;2023-08-24T11:46:56;7.45;;;4.97;;
15246;SDS011;7726;48.820;9.248;2023-08-24T11:49:24;5.78;;;4.90;;
15246;SDS011;7726;48.820;9.248;2023-08-24T11:51:51;5.53;;;5.03;;
15246;SDS011;7726;48.820;9.248;2023-08-24T11:54:18;10.27;;;5.43;;
15246;SDS011;7726;48.820;9.248;2023-08-24T11:56:46;7.80;;;5.45;;
15246;SDS011;7726;48.820;9.248;2023-08-24T11:59:13;6.45;;;5.20;;
15246;SDS011;7726;48.820;9.248;2023-08-24T12:01:42;5.90;;;5.35;;
15246;SDS011;7726;48.820;9.248;2023-08-24T12:04:10;5.65;;;5.20;;
15246;SDS011;7726;48.820;9.248;2023-08-24T12:06:37;6.47;;;5.35;;
15246;SDS011;7726;48.820;9.248;2023-08-24T12:09:05;6.13;;;5.47;;
15246;SDS011;7726;48.820;9.248;2023-08-24T12:11:34;10.73;;;6.10;;
15246;SDS011;7726;48.820;9.248;2023-08-24T12:14:02;7.10;;;5.10;;
15246;SDS011;7726;48.820;9.248;2023-08-24T12:16:31;7.60;;;5.38;;
15246;SDS011;7726;48.820;9.248;2023-08-24T12:19:00;7.47;;;5.13;;
15246;SDS011;7726;48.820;9.248;2023-08-24T12:21:28;10.48;;;5.60;;
15246;SDS011;7726;48.820;9.248;2023-08-24T12:23:56;5.57;;;4.85;;
15246;SDS011;7726;48.820;9.248;2023-08-24T12:26:24;5.45;;;4.45;;
15246;SDS011;7726;48.820;9.248;2023-08-24T12:28:51;8.18;;;5.28;;
15246;SDS011;7726;48.820;9.248;2023-08-24T12:31:18;15.73;;;9.63;;
15246;SDS011;7726;48.820;9.248;2023-08-24T12:33:46;9.65;;;5.40;;
15246;SDS011;7726;48.820;9.248;2023-08-24T12:36:25;7.30;;;5.25;;
15246;SDS011;7726;48.820;9.248;2023-08-24T12:38:52;6.10;;;5.50;;
15246;SDS011;7726;48.820;9.248;2023-08-24T12:41:19;8.20;;;5.47;;
15246;SDS011;7726;48.820;9.248;2023-08-24T12:43:47;6.18;;;4.90;;
15246;SDS011;7726;48.820;9.248;2023-08-24T12:46:14;8.57;;;5.50;;
15246;SDS011;7726;48.820;9.248;2023-08-24T12:48:41;6.03;;;5.43;;
15246;SDS011;7726;48.820;9.248;2023-08-24T12:51:08;7.07;;;5.25;;
15246;SDS011;7726;48.820;9.248;2023-08-24T12:53:37;8.20;;;5.47;;
15246;SDS011;7726;48.820;9.248;2023-08-24T12:56:04;9.73;;;5.68;;
15246;SDS011;7726;48.820;9.248;2023-08-24T12:58:31;8.65;;;5.22;;
15246;SDS011;7726;48.820;9.248;2023-08-24T13:00:58;8.43;;;5.18;;
15246;SDS011;7726;48.820;9.248;2023-08-24T13:03:26;8.20;;;5.07;;
15246;SDS011;7726;48.820;9.248;2023-08-24T13:05:53;6.30;;;5.00;;
15246;SDS011;7726;48.820;9.248;2023-08-24T13:08:20;5.93;;;5.03;;
15246;SDS011;7726;48.820;9.248;2023-08-24T13:10:48;7.50;;;5.40;;
15246;SDS011;7726;48.820;9.248;2023-08-24T13:13:16;5.95;;;5.32;;
15246;SDS011;7726;48.820;9.248;2023-08-24T13:15:45;8.07;;;4.80;;
15246;SDS011;7726;48.820;9.248;2023-08-24T13:18:13;6.50;;;4.82;;
15246;SDS011;7726;48.820;9.248;2023-08-24T13:20:40;8.93;;;4.90;;
15246;SDS011;7726;48.820;9.248;2023-08-24T13:23:07;6.07;;;4.63;;
15246;SDS011;7726;48.820;9.248;2023-08-24T13:25:34;6.50;;;5.50;;
15246;SDS011;7726;48.820;9.248;2023-08-24T13:40:07;7.65;;;4.88;;
15246;SDS011;7726;48.820;9.248;2023-08-24T13:55:12;8.05;;;5.15;;
15246;SDS011;7726;48.820;9.248;2023-08-24T13:57:40;9.02;;;4.95;;
15246;SDS011;7726;48.820;9.248;2023-08-24T14:00:07;9.45;;;5.45;;
15246;SDS011;7726;48.820;9.248;2023-08-24T14:02:36;9.23;;;4.47;;
15246;SDS011;7726;48.820;9.248;2023-08-24T14:05:04;10.77;;;5.05;;
15246;SDS011;7726;48.820;9.248;2023-08-24T14:07:34;8.27;;;4.68;;
15246;SDS011;7726;48.820;9.248;2023-08-24T14:16:10;9.50;;;4.68;;
15246;SDS011;7726;48.820;9.248;2023-08-24T14:18:37;15.65;;;5.30;;
15246;SDS011;7726;48.820;9.248;2023-08-24T14:21:04;5.40;;;4.90;;
15246;SDS011;7726;48.820;9.248;2023-08-24T14:23:31;10.20;;;5.18;;
15246;SDS011;7726;48.820;9.248;2023-08-24T14:25:59;10.55;;;4.90;;
15246;SDS011;7726;48.820;9.248;2023-08-24T14:28:26;7.30;;;4.40;;
15246;SDS011;7726;48.820;9.248;2023-08-24T14:31:14;14.70;;;5.65;;
15246;SDS011;7726;48.820;9.248;2023-08-24T14:33:41;9.38;;;4.90;;
15246;SDS011;7726;48.820;9.248;2023-08-24T14:36:12;6.85;;;5.30;;
15246;SDS011;7726;48.820;9.248;2023-08-24T14:38:39;8.35;;;4.57;;
15246;SDS011;7726;48.820;9.248;2023-08-24T14:41:06;12.40;;;5.00;;
15246;SDS011;7726;48.820;9.248;2023-08-24T14:43:34;8.32;;;5.25;;
15246;SDS011;7726;48.820;9.248;2023-08-24T14:46:01;10.07;;;4.53;;
15246;SDS011;7726;48.820;9.248;2023-08-24T14:48:29;7.97;;;5.10;;
15246;SDS011;7726;48.820;9.248;2023-08-24T14:50:58;6.88;;;4.75;;
15246;SDS011;7726;48.820;9.248;2023-08-24T14:53:25;8.00;;;5.50;;
15246;SDS011;7726;48.820;9.248;2023-08-24T14:55:52;11.20;;;5.47;;
15246;SDS011;7726;48.820;9.248;2023-08-24T14:58:20;11.63;;;5.15;;
15246;SDS011;7726;48.820;9.248;2023-08-24T15:00:48;7.10;;;4.88;;
15246;SDS011;7726;48.820;9.248;2023-08-24T15:03:15;7.47;;;4.50;;
15246;SDS011;7726;48.820;9.248;2023-08-24T15:05:44;20.23;;;5.03;;
15246;SDS011;7726;48.820;9.248;2023-08-24T15:08:12;14.70;;;4.70;;
15246;SDS011;7726;48.820;9.248;2023-08-24T15:10:40;10.40;;;5.10;;
15246;SDS011;7726;48.820;9.248;2023-08-24T15:13:07;6.53;;;3.90;;
15246;SDS011;7726;48.820;9.248;2023-08-24T15:15:35;13.05;;;4.93;;
15246;SDS011;7726;48.820;9.248;2023-08-24T15:18:03;8.32;;;4.07;;
15246;SDS011;7726;48.820;9.248;2023-08-24T15:20:30;7.80;;;4.55;;
15246;SDS011;7726;48.820;9.248;2023-08-24T15:22:59;6.22;;;4.88;;
15246;SDS011;7726;48.820;9.248;2023-08-24T15:25:26;6.47;;;4.80;;
15246;SDS011;7726;48.820;9.248;2023-08-24T15:27:53;6.70;;;3.60;;
15246;SDS011;7726;48.820;9.248;2023-08-24T15:30:21;6.38;;;5.00;;
15246;SDS011;7726;48.820;9.248;2023-08-24T15:32:48;6.25;;;5.65;;
15246;SDS011;7726;48.820;9.248;2023-08-24T15:35:15;7.28;;;4.85;;